Bayshore, New York
Current Conditions -  °F | °C
As of 6:01 AM on Thursday 23 Oct 2014 (Local Time) from KFRG Reporting Station
Light Rain Light Rain  
Wind Chill: 11°   Ceiling: 4200
Heat Index: 11°   Visibility: 10mi
Dew Point:   Wind: 14mph
Humidity: 86%   Direction: 10°N
Pressure: 29.66"   Gusts: 24mph
Location:  40.7379°N, 73.2632°W
Report Text: KFRG 231001Z AUTO 01012G21KT 10SM -RA FEW021 BKN042 OVC065 11/09 A2966 RMK AO2 RAB0957 P0001 T01110089
Loading
Personal Weather Stations






























Interactive Weather Map
Tropical Storm Tracking
New forecast layout! Learn more

10-Day Weather Forecast

Advertisements
Track Severe Weather on mobile